Climax, Michigan
Current Conditions -  °F | °C
As of 7:53 PM on Saturday 22 Nov 2014 (Local Time) from KBTL Reporting Station
Haze Haze  
Wind Chill: 40°   Ceiling: 2000
Heat Index: 46°   Visibility: 5mi
Dew Point: 43°   Wind: 14mph
Humidity: 89%   Direction: 210°SSW
Pressure: 29.91"   Gusts: NA
Location:  42.24°N, 85.33°W
Report Text: KBTL 230053Z 21012KT 5SM BR OVC020 08/06 A2991 RMK AO2 RAE21 SLP134 P0000 T00780061 $
Loading
Personal Weather Stations






























Interactive Weather Map New forecast layout! Learn more

10-Day Weather Forecast

Advertisements
Track Severe Weather on mobile